createdAt,value
2022-12-01T00:00:27.113Z,0.75
2022-12-01T00:01:29.993Z,0.77
2022-12-01T00:02:33.163Z,0.76
2022-12-01T00:03:37.444Z,0.75
2022-12-01T00:04:40.982Z,0.77
2022-12-01T00:05:43.606Z,0.79
2022-12-01T00:06:46.852Z,0.78
2022-12-01T00:07:50.047Z,0.78
2022-12-01T00:09:16.506Z,0.77
2022-12-01T00:10:26.125Z,0.79
2022-12-01T00:11:29.246Z,0.77
2022-12-01T00:12:32.117Z,0.76
2022-12-01T00:13:35.127Z,0.75
2022-12-01T00:14:38.058Z,0.75
2022-12-01T00:15:40.606Z,0.74
2022-12-01T00:16:44.676Z,0.74
2022-12-01T00:17:49.006Z,0.76
2022-12-01T00:18:53.047Z,0.76
2022-12-01T00:19:56.398Z,0.76
2022-12-01T00:20:58.942Z,0.76
2022-12-01T00:22:02.030Z,0.76
2022-12-01T00:23:04.896Z,0.79
2022-12-01T00:24:07.946Z,0.79
2022-12-01T00:25:11.317Z,0.84
2022-12-01T00:26:14.522Z,0.52
2022-12-01T00:27:18.259Z,0.85
2022-12-01T00:28:21.674Z,0.85
2022-12-01T00:29:25.110Z,0.86
2022-12-01T00:30:27.697Z,0.85
2022-12-01T00:31:30.638Z,0.87
2022-12-01T00:32:33.298Z,0.88
2022-12-01T00:33:36.715Z,0.87
2022-12-01T00:34:39.941Z,0.87
2022-12-01T00:35:43.299Z,0.85
2022-12-01T00:36:46.108Z,0.51
2022-12-01T00:37:49.041Z,0.83
2022-12-01T00:38:54.859Z,0.84
2022-12-01T00:39:58.675Z,0.86
2022-12-01T00:45:23.541Z,0.86
2022-12-01T00:46:26.930Z,0.88
2022-12-01T00:47:29.790Z,0.92
2022-12-01T00:50:39.099Z,0.91
2022-12-01T00:51:42.052Z,0.95
2022-12-01T00:55:10.279Z,0.97
2022-12-01T00:56:13.045Z,0.98
2022-12-01T00:59:42.298Z,0.97
2022-12-01T01:00:44.907Z,0.98
2022-12-01T01:04:13.306Z,1.03
2022-12-01T01:05:16.128Z,1.03
2022-12-01T01:08:45.303Z,0.99
2022-12-01T01:09:48.317Z,1.02
2022-12-01T01:13:17.313Z,1.05
2022-12-01T01:14:20.720Z,1.02
2022-12-01T01:17:47.380Z,1.00
2022-12-01T01:18:50.422Z,1.02
2022-12-01T01:22:19.288Z,1.04
2022-12-01T01:23:21.827Z,1.00
2022-12-01T01:26:51.284Z,1.02
2022-12-01T01:27:53.939Z,1.03
2022-12-01T01:28:59.232Z,1.07
2022-12-01T01:30:02.120Z,1.06
2022-12-01T01:31:22.422Z,1.06
2022-12-01T01:32:25.175Z,1.02
2022-12-01T01:33:27.783Z,1.02
2022-12-01T01:36:36.048Z,1.03
2022-12-01T01:37:40.355Z,1.03
2022-12-01T01:42:12.803Z,1.01
2022-12-01T01:45:42.309Z,0.96
2022-12-01T01:46:44.920Z,0.96
2022-12-01T01:50:14.297Z,0.87
2022-12-01T01:51:22.560Z,0.85
2022-12-01T01:54:44.406Z,0.80
2022-12-01T01:55:47.069Z,0.76
2022-12-01T01:59:16.275Z,0.78
2022-12-01T02:00:20.551Z,0.76
2022-12-01T02:03:46.410Z,0.72
2022-12-01T02:04:56.043Z,0.70
2022-12-01T02:08:17.175Z,0.72
2022-12-01T02:09:19.955Z,0.72
2022-12-01T02:12:46.370Z,0.71
2022-12-01T02:14:04.393Z,0.70
2022-12-01T02:15:27.570Z,0.71
2022-12-01T02:16:55.202Z,0.70
2022-12-01T02:18:25.609Z,0.69
2022-12-01T02:20:14.030Z,0.67
2022-12-01T02:21:19.490Z,0.62
2022-12-01T02:27:13.128Z,0.50
2022-12-01T02:28:18.650Z,0.48
2022-12-01T02:31:39.270Z,0.45
2022-12-01T02:32:49.125Z,0.43
2022-12-01T02:36:46.729Z,0.40
2022-12-01T02:41:57.001Z,0.38
2022-12-01T02:43:20.840Z,0.36
2022-12-01T02:44:35.037Z,0.37
2022-12-01T02:45:46.191Z,0.38
2022-12-01T02:46:56.161Z,0.39
2022-12-01T02:50:17.449Z,0.37
2022-12-01T02:51:25.287Z,0.37
2022-12-01T02:54:47.444Z,0.38
2022-12-01T02:55:53.485Z,0.39
2022-12-01T02:59:17.385Z,0.42
2022-12-01T03:00:20.084Z,0.40
2022-12-01T03:03:49.273Z,0.40
2022-12-01T03:09:14.209Z,0.42
2022-12-01T03:10:29.992Z,0.43
2022-12-01T03:13:40.956Z,0.39
2022-12-01T03:15:02.172Z,0.43
2022-12-01T03:18:44.908Z,0.47
2022-12-01T03:19:54.125Z,0.45
2022-12-01T03:21:08.286Z,0.46
2022-12-01T03:22:52.364Z,0.45
2022-12-01T03:24:02.385Z,0.43
2022-12-01T03:27:29.966Z,0.40
2022-12-01T03:28:38.279Z,0.40
2022-12-01T03:32:00.169Z,0.37
2022-12-01T03:37:22.018Z,0.33
2022-12-01T03:42:27.461Z,0.31
2022-12-01T03:43:34.451Z,0.29
2022-12-01T03:46:55.080Z,0.31
2022-12-01T03:47:57.744Z,0.31
2022-12-01T03:51:21.817Z,0.32
2022-12-01T03:56:56.490Z,0.30
2022-12-01T04:00:15.858Z,0.28
2022-12-01T04:01:19.390Z,0.28
2022-12-01T04:02:25.500Z,0.26
2022-12-01T04:03:28.394Z,0.25
2022-12-01T04:04:45.374Z,0.16
2022-12-01T04:05:48.035Z,0.26
2022-12-01T04:06:51.248Z,0.26
2022-12-01T04:09:59.891Z,0.26
2022-12-01T04:15:08.259Z,0.29
2022-12-01T04:16:11.109Z,0.30
2022-12-01T04:17:13.823Z,0.30
2022-12-01T04:20:22.457Z,0.33
2022-12-01T04:21:25.327Z,0.26
2022-12-01T04:25:59.077Z,0.34
2022-12-01T04:27:01.988Z,0.35
2022-12-01T04:28:04.798Z,0.39
2022-12-01T04:29:21.348Z,0.39
2022-12-01T04:30:24.024Z,0.38
2022-12-01T04:31:26.926Z,0.36
2022-12-01T04:34:23.187Z,0.38
2022-12-01T04:35:25.763Z,0.38
2022-12-01T04:39:53.924Z,0.34
2022-12-01T04:44:24.473Z,0.33
2022-12-01T04:49:10.183Z,0.33
2022-12-01T04:52:23.390Z,0.31
2022-12-01T04:53:26.353Z,0.29
2022-12-01T04:54:29.017Z,0.26
2022-12-01T04:57:25.136Z,0.24
2022-12-01T04:58:29.850Z,0.28
2022-12-01T05:02:56.556Z,0.27
2022-12-01T05:07:26.828Z,0.25
2022-12-01T05:12:14.513Z,0.22
2022-12-01T05:15:27.341Z,0.21
2022-12-01T05:16:32.574Z,0.21
2022-12-01T05:17:37.053Z,0.20
2022-12-01T05:18:40.865Z,0.20
2022-12-01T05:20:16.232Z,0.18
2022-12-01T05:21:18.954Z,0.17
2022-12-01T05:24:27.386Z,0.14
2022-12-01T05:25:30.796Z,0.13
2022-12-01T05:26:33.784Z,0.10
2022-12-01T05:29:33.054Z,0.12
2022-12-01T05:30:35.953Z,0.13
2022-12-01T05:35:02.314Z,0.08
2022-12-01T05:39:33.765Z,0.12
2022-12-01T05:44:06.961Z,0.08
2022-12-01T05:48:35.028Z,0.09
2022-12-01T05:49:38.079Z,0.10
2022-12-01T05:52:35.457Z,0.09
2022-12-01T05:53:38.311Z,0.06
2022-12-01T05:58:22.126Z,0.08
2022-12-01T06:01:35.444Z,0.10
2022-12-01T06:02:42.417Z,0.09
2022-12-01T06:07:06.770Z,0.12
2022-12-01T06:08:09.774Z,0.04
2022-12-01T06:11:06.178Z,0.10
2022-12-01T06:12:08.730Z,0.13
2022-12-01T06:16:38.475Z,0.17
2022-12-01T06:21:08.813Z,0.19
2022-12-01T06:22:11.819Z,0.23
2022-12-01T06:23:14.501Z,0.25
2022-12-01T06:24:17.483Z,0.26
2022-12-01T06:25:20.250Z,0.28
2022-12-01T06:26:25.415Z,0.30
2022-12-01T06:27:29.155Z,0.25
2022-12-01T06:28:31.788Z,0.32
2022-12-01T06:29:39.053Z,0.33
2022-12-01T06:30:45.616Z,0.33
2022-12-01T06:31:49.313Z,0.37
2022-12-01T06:32:52.324Z,0.37
2022-12-01T06:33:54.872Z,0.36
2022-12-01T06:34:57.948Z,0.41
2022-12-01T06:36:05.887Z,0.42
2022-12-01T06:37:08.775Z,0.44
2022-12-01T06:38:11.851Z,0.45
2022-12-01T06:39:17.677Z,0.49
2022-12-01T06:40:20.523Z,0.52
2022-12-01T06:41:23.496Z,0.52
2022-12-01T06:42:29.902Z,0.53
2022-12-01T06:43:32.588Z,0.56
2022-12-01T06:44:35.105Z,0.53
2022-12-01T06:45:38.283Z,0.57
2022-12-01T06:46:41.291Z,0.57
2022-12-01T06:47:44.296Z,0.60
2022-12-01T06:48:49.184Z,0.62
2022-12-01T06:49:52.047Z,0.58
2022-12-01T06:51:01.128Z,0.64
2022-12-01T06:52:05.192Z,0.65
2022-12-01T06:53:08.600Z,0.68
2022-12-01T06:54:12.758Z,0.70
2022-12-01T06:55:16.231Z,0.67
2022-12-01T06:56:18.920Z,0.70
2022-12-01T06:57:22.265Z,0.74
2022-12-01T06:58:25.725Z,0.75
2022-12-01T06:59:29.141Z,0.77
2022-12-01T07:00:32.428Z,0.79
2022-12-01T07:01:35.164Z,0.81
2022-12-01T07:02:39.209Z,0.84
2022-12-01T07:03:42.975Z,0.86
2022-12-01T07:04:45.490Z,0.90
2022-12-01T07:06:01.876Z,0.92
2022-12-01T07:07:08.002Z,0.95
2022-12-01T07:08:12.490Z,0.99
2022-12-01T07:09:15.388Z,1.02
2022-12-01T07:10:18.674Z,1.03
2022-12-01T07:11:21.261Z,1.08
2022-12-01T07:12:23.941Z,1.10
2022-12-01T07:13:32.772Z,1.14
2022-12-01T07:14:36.571Z,1.16
2022-12-01T07:15:40.562Z,1.19
2022-12-01T07:16:43.596Z,1.23
2022-12-01T07:17:46.241Z,1.20
2022-12-01T07:18:49.496Z,1.28
2022-12-01T07:19:52.349Z,1.22
2022-12-01T07:21:02.354Z,1.34
2022-12-01T07:22:05.016Z,1.38
2022-12-01T07:23:07.567Z,1.40
2022-12-01T07:24:12.629Z,1.41
2022-12-01T07:25:15.484Z,1.39
2022-12-01T07:26:18.767Z,1.49
2022-12-01T07:27:21.587Z,1.50
2022-12-01T07:28:24.176Z,1.54
2022-12-01T07:29:26.780Z,1.56
2022-12-01T07:30:30.363Z,1.60
2022-12-01T07:31:33.079Z,1.57
2022-12-01T07:32:35.801Z,1.68
2022-12-01T07:33:38.754Z,1.69
2022-12-01T07:34:41.838Z,1.74
2022-12-01T07:35:44.682Z,1.76
2022-12-01T07:36:47.322Z,1.77
2022-12-01T07:37:56.849Z,1.81
2022-12-01T07:39:00.682Z,1.83
2022-12-01T07:40:03.508Z,1.87
2022-12-01T07:41:14.668Z,1.89
2022-12-01T07:42:17.242Z,1.90
2022-12-01T07:43:19.956Z,1.89
2022-12-01T07:44:22.574Z,1.97
2022-12-01T07:45:25.345Z,1.97
2022-12-01T07:46:29.588Z,1.99
2022-12-01T07:47:32.659Z,2.04
2022-12-01T07:48:37.349Z,2.03
2022-12-01T07:49:39.997Z,2.04
2022-12-01T07:50:42.636Z,2.06
2022-12-01T07:51:46.016Z,2.09
2022-12-01T07:52:51.686Z,2.12
2022-12-01T07:53:54.558Z,2.15
2022-12-01T07:54:57.389Z,2.17
2022-12-01T07:56:03.131Z,2.22
2022-12-01T07:57:09.938Z,2.24
2022-12-01T07:58:13.054Z,2.26
2022-12-01T07:59:15.694Z,2.28
2022-12-01T08:00:18.964Z,2.30
2022-12-01T08:01:24.899Z,2.34
2022-12-01T08:02:28.085Z,2.35
2022-12-01T08:03:33.829Z,2.38
2022-12-01T08:04:36.652Z,2.40
2022-12-01T08:05:39.743Z,2.41
2022-12-01T08:06:42.676Z,2.43
2022-12-01T08:07:45.309Z,2.45
2022-12-01T08:08:48.860Z,2.47
2022-12-01T08:09:51.743Z,2.49
2022-12-01T08:10:54.451Z,2.49
2022-12-01T08:11:57.590Z,2.52
2022-12-01T08:13:00.074Z,2.54
2022-12-01T08:14:02.971Z,2.60
2022-12-01T08:15:05.980Z,2.62
2022-12-01T08:16:13.660Z,2.65
2022-12-01T08:17:16.752Z,2.60
2022-12-01T08:18:19.457Z,2.71
2022-12-01T08:19:22.498Z,2.74
2022-12-01T08:20:25.176Z,2.76
2022-12-01T08:21:27.806Z,2.79
2022-12-01T08:22:31.039Z,2.82
2022-12-01T08:23:33.594Z,2.82
2022-12-01T08:24:36.383Z,2.84
2022-12-01T08:25:39.332Z,2.88
2022-12-01T08:26:41.973Z,2.88
2022-12-01T08:27:44.850Z,2.90
2022-12-01T08:28:48.476Z,2.94
2022-12-01T08:29:51.293Z,3.00
2022-12-01T08:30:54.191Z,3.02
2022-12-01T08:31:58.647Z,3.06
2022-12-01T08:33:01.513Z,3.09
2022-12-01T08:34:07.916Z,3.08
2022-12-01T08:35:10.653Z,3.10
2022-12-01T08:36:14.044Z,3.13
2022-12-01T08:37:16.619Z,3.14
2022-12-01T08:38:19.587Z,3.16
2022-12-01T08:39:22.766Z,3.19
2022-12-01T08:40:25.303Z,3.24
2022-12-01T08:41:28.602Z,3.23
2022-12-01T08:42:31.608Z,3.29
2022-12-01T08:45:02.375Z,3.34
2022-12-01T08:46:06.342Z,3.37
2022-12-01T08:47:10.162Z,3.37
2022-12-01T08:48:13.778Z,3.35
2022-12-01T08:49:16.681Z,3.46
2022-12-01T08:50:20.355Z,3.47
2022-12-01T08:51:23.336Z,3.43
2022-12-01T08:52:31.920Z,3.50
2022-12-01T08:53:38.313Z,3.53
2022-12-01T08:54:44.930Z,3.55
2022-12-01T08:55:48.169Z,3.59
2022-12-01T08:56:50.935Z,3.66
2022-12-01T08:57:54.123Z,3.73
2022-12-01T08:58:58.070Z,3.74
2022-12-01T09:00:00.954Z,3.75
2022-12-01T09:01:07.705Z,3.76
2022-12-01T09:02:16.105Z,3.82
2022-12-01T09:03:19.203Z,3.83
2022-12-01T09:04:24.647Z,3.85
2022-12-01T09:05:28.206Z,3.85
2022-12-01T09:06:42.158Z,3.92
2022-12-01T09:08:06.138Z,3.95
2022-12-01T09:09:10.934Z,3.96
2022-12-01T09:10:14.145Z,4.04
2022-12-01T09:11:19.327Z,4.03
2022-12-01T09:12:22.424Z,4.04
2022-12-01T09:13:26.043Z,4.08
2022-12-01T09:14:30.094Z,4.08
2022-12-01T09:15:32.636Z,4.05
2022-12-01T09:16:35.696Z,4.10
2022-12-01T09:17:39.622Z,4.15
2022-12-01T09:18:43.391Z,4.20
2022-12-01T09:19:46.390Z,4.23
2022-12-01T09:20:50.519Z,4.24
2022-12-01T09:21:53.386Z,4.27
2022-12-01T09:22:56.194Z,4.23
2022-12-01T09:24:00.529Z,4.24
2022-12-01T09:25:09.717Z,4.24
2022-12-01T09:26:14.007Z,4.28
2022-12-01T09:27:16.917Z,4.30
2022-12-01T09:28:20.238Z,4.34
2022-12-01T09:29:23.311Z,4.33
2022-12-01T09:30:26.049Z,4.46
2022-12-01T09:31:29.631Z,4.59
2022-12-01T09:32:32.556Z,4.90
2022-12-01T09:33:35.777Z,5.25
2022-12-01T09:34:38.642Z,5.57
2022-12-01T09:35:41.488Z,5.83
2022-12-01T09:36:45.010Z,6.08
2022-12-01T09:37:49.457Z,6.08
2022-12-01T09:38:52.287Z,6.38
2022-12-01T09:39:55.938Z,6.32
2022-12-01T09:41:02.618Z,6.57
2022-12-01T09:42:15.551Z,6.83
2022-12-01T09:43:26.034Z,7.37
2022-12-01T09:44:36.735Z,7.60
2022-12-01T09:45:44.362Z,7.27
2022-12-01T09:47:26.330Z,7.41
2022-12-01T09:48:34.646Z,7.82
2022-12-01T09:49:56.096Z,7.96
2022-12-01T09:50:58.737Z,7.93
2022-12-01T09:52:01.576Z,8.05
2022-12-01T09:53:08.582Z,7.78
2022-12-01T09:54:14.389Z,7.98
2022-12-01T09:55:21.048Z,7.88
2022-12-01T09:56:30.313Z,7.86
2022-12-01T09:57:38.546Z,8.16
2022-12-01T09:58:42.919Z,8.05
2022-12-01T09:59:46.768Z,7.41
2022-12-01T10:00:51.443Z,7.36
2022-12-01T10:02:00.304Z,7.82
2022-12-01T10:03:17.762Z,7.84
2022-12-01T10:04:40.609Z,8.01
2022-12-01T10:06:10.220Z,8.08
2022-12-01T10:07:38.084Z,8.14
2022-12-01T10:08:48.891Z,8.25
2022-12-01T10:09:54.900Z,8.40
2022-12-01T10:11:26.387Z,8.42
2022-12-01T10:12:35.080Z,8.24
2022-12-01T10:13:37.642Z,8.20
2022-12-01T10:14:41.177Z,8.39
2022-12-01T10:16:09.016Z,8.31
2022-12-01T10:17:30.451Z,8.43
2022-12-01T10:18:36.493Z,8.41
2022-12-01T10:19:42.665Z,8.58
2022-12-01T10:20:57.782Z,8.68
2022-12-01T10:22:48.423Z,8.78
2022-12-01T10:24:03.601Z,8.77
2022-12-01T10:25:08.651Z,8.96
2022-12-01T10:26:25.422Z,9.04
2022-12-01T10:27:44.130Z,9.28
2022-12-01T10:29:13.078Z,9.21
2022-12-01T10:30:18.915Z,9.35
2022-12-01T10:31:49.386Z,9.24
2022-12-01T10:32:53.653Z,9.36
2022-12-01T10:34:03.069Z,9.68
2022-12-01T10:35:05.905Z,9.52
2022-12-01T10:36:10.541Z,9.54
2022-12-01T10:37:18.935Z,8.73
2022-12-01T10:38:32.717Z,8.16
2022-12-01T10:39:39.250Z,7.16
2022-12-01T10:40:44.536Z,6.74
2022-12-01T10:41:49.157Z,6.47
2022-12-01T10:42:52.152Z,6.31
2022-12-01T10:44:00.879Z,6.15
2022-12-01T10:45:07.732Z,6.09
2022-12-01T10:46:24.413Z,5.86
2022-12-01T10:47:28.903Z,5.93
2022-12-01T10:48:31.961Z,6.53
2022-12-01T10:49:40.014Z,6.87
2022-12-01T10:50:57.107Z,7.04
2022-12-01T10:51:59.928Z,6.71
2022-12-01T10:53:04.180Z,6.52
2022-12-01T10:54:11.481Z,6.67
2022-12-01T10:55:23.097Z,6.56
2022-12-01T10:56:26.545Z,6.45
2022-12-01T10:57:31.144Z,6.23
2022-12-01T10:58:43.259Z,6.17
2022-12-01T10:59:48.913Z,6.21
2022-12-01T11:01:00.054Z,6.11
2022-12-01T11:02:19.697Z,6.01
2022-12-01T11:03:28.640Z,6.01
2022-12-01T11:04:46.694Z,6.16
2022-12-01T11:05:54.788Z,6.16
2022-12-01T11:06:58.115Z,6.28
2022-12-01T11:08:02.653Z,6.37
2022-12-01T11:09:21.528Z,6.68
2022-12-01T11:10:37.901Z,6.84
2022-12-01T11:11:41.034Z,7.00
2022-12-01T11:12:52.243Z,7.25
2022-12-01T11:13:56.908Z,7.42
2022-12-01T11:14:59.972Z,7.27
2022-12-01T11:16:06.574Z,7.02
2022-12-01T11:17:44.931Z,6.82
2022-12-01T11:18:47.679Z,6.70
2022-12-01T11:19:50.982Z,6.56
2022-12-01T11:21:15.173Z,6.46
2022-12-01T11:22:22.674Z,6.34
2022-12-01T11:23:28.527Z,6.13
2022-12-01T11:24:43.901Z,6.25
2022-12-01T11:26:14.724Z,6.15
2022-12-01T11:27:19.349Z,6.05
2022-12-01T11:30:42.302Z,6.22
2022-12-01T11:31:48.070Z,6.63
2022-12-01T11:35:12.338Z,6.54
2022-12-01T11:40:21.739Z,6.81
2022-12-01T11:41:29.935Z,6.44
2022-12-01T11:42:34.453Z,6.72
2022-12-01T11:45:19.162Z,6.74
2022-12-01T11:50:27.780Z,6.84
2022-12-01T11:51:37.762Z,6.59
2022-12-01T11:54:58.766Z,6.61
2022-12-01T12:04:59.076Z,7.20
2022-12-01T12:58:26.958Z,8.14
2022-12-01T13:00:06.399Z,8.16
2022-12-01T13:01:21.132Z,8.21
2022-12-01T13:02:38.450Z,8.12
2022-12-01T13:03:55.328Z,7.99
2022-12-01T13:05:36.379Z,7.88
2022-12-01T13:06:51.922Z,7.85
2022-12-01T13:08:00.421Z,7.73
2022-12-01T13:09:12.114Z,7.93
2022-12-01T13:10:36.987Z,7.82
2022-12-01T13:11:48.834Z,7.69
2022-12-01T13:13:13.057Z,7.74
2022-12-01T13:14:28.182Z,7.69
2022-12-01T13:15:34.376Z,7.56
2022-12-01T13:16:41.821Z,7.51
2022-12-01T13:18:01.095Z,7.58
2022-12-01T13:19:16.848Z,7.50
2022-12-01T13:20:25.222Z,7.43
2022-12-01T13:21:35.142Z,7.35
2022-12-01T13:22:38.098Z,7.34
2022-12-01T13:23:41.294Z,7.13
2022-12-01T13:24:44.264Z,7.21
2022-12-01T13:25:50.402Z,7.06
2022-12-01T13:27:08.233Z,6.94
2022-12-01T13:28:21.641Z,6.90
2022-12-01T13:29:25.858Z,6.76
2022-12-01T13:30:29.377Z,6.58
2022-12-01T13:31:43.951Z,6.69
2022-12-01T13:32:48.613Z,6.57
2022-12-01T13:34:05.868Z,6.58
2022-12-01T13:35:30.028Z,6.47
2022-12-01T13:36:49.184Z,6.63
2022-12-01T13:37:52.714Z,6.63
2022-12-01T13:39:18.965Z,6.66
2022-12-01T13:40:30.964Z,6.60
2022-12-01T13:41:38.682Z,6.44
2022-12-01T13:42:41.942Z,6.42
2022-12-01T13:44:27.196Z,6.44
2022-12-01T13:45:34.449Z,6.58
2022-12-01T13:46:37.228Z,6.54
2022-12-01T13:47:51.804Z,6.64
2022-12-01T13:48:57.369Z,6.57
2022-12-01T13:50:44.400Z,6.55
2022-12-01T13:52:29.139Z,6.54
2022-12-01T13:53:36.984Z,6.39
2022-12-01T13:54:59.497Z,6.33
2022-12-01T14:10:58.596Z,5.31
2022-12-01T14:12:05.832Z,5.21
2022-12-01T14:13:19.260Z,5.15
2022-12-01T14:14:26.398Z,5.08
2022-12-01T14:15:42.928Z,4.99
2022-12-01T14:16:53.057Z,4.88
2022-12-01T14:18:06.535Z,4.81
2022-12-01T14:19:25.116Z,4.68
2022-12-01T14:20:30.600Z,4.58
2022-12-01T14:21:49.872Z,4.51
2022-12-01T14:23:30.758Z,4.41
2022-12-01T14:24:41.604Z,4.35
2022-12-01T14:26:17.450Z,4.34
2022-12-01T14:27:42.267Z,4.25
2022-12-01T14:29:00.595Z,4.16
2022-12-01T14:30:42.152Z,4.12
2022-12-01T14:31:46.409Z,3.97
2022-12-01T14:32:49.185Z,3.98
2022-12-01T14:33:58.771Z,3.92
2022-12-01T14:35:04.209Z,3.89
2022-12-01T14:36:18.778Z,3.84
2022-12-01T14:37:26.258Z,3.80
2022-12-01T14:38:29.592Z,3.80
2022-12-01T14:39:35.677Z,3.77
2022-12-01T14:40:38.626Z,3.73
2022-12-01T14:41:46.963Z,3.70
2022-12-01T14:43:12.832Z,3.65
2022-12-01T14:44:33.985Z,3.61
2022-12-01T14:45:45.926Z,3.59
2022-12-01T14:46:58.478Z,3.58
2022-12-01T14:48:05.103Z,3.59
2022-12-01T14:49:16.033Z,3.54
2022-12-01T14:50:25.135Z,3.50
2022-12-01T14:51:34.057Z,3.45
2022-12-01T14:52:46.315Z,3.40
2022-12-01T14:53:52.525Z,3.36
2022-12-01T14:54:58.994Z,3.34
2022-12-01T14:56:10.809Z,3.32
2022-12-01T14:57:17.932Z,3.30
2022-12-01T14:58:26.132Z,3.28
2022-12-01T14:59:29.279Z,3.26
2022-12-01T15:00:36.642Z,3.26
2022-12-01T15:01:40.946Z,3.23
2022-12-01T15:02:51.166Z,3.20
2022-12-01T15:03:59.366Z,3.18
2022-12-01T15:05:18.961Z,3.19
2022-12-01T15:06:24.901Z,3.18
2022-12-01T15:07:30.485Z,3.17
2022-12-01T15:08:53.254Z,3.14
2022-12-01T15:10:01.877Z,3.17
2022-12-01T15:11:11.078Z,3.14
2022-12-01T15:12:28.011Z,3.12
2022-12-01T15:13:54.687Z,3.10
2022-12-01T15:14:57.562Z,3.10
2022-12-01T15:16:13.753Z,3.08
2022-12-01T15:17:33.238Z,3.05
2022-12-01T15:18:37.014Z,3.07
2022-12-01T15:19:41.723Z,3.07
2022-12-01T15:20:47.789Z,3.05
2022-12-01T15:21:51.859Z,3.05
2022-12-01T15:22:56.405Z,3.04
2022-12-01T15:24:25.373Z,2.98
2022-12-01T15:25:35.665Z,3.01
2022-12-01T15:26:47.344Z,2.96
2022-12-01T15:28:16.748Z,2.99
2022-12-01T15:29:35.538Z,2.97
2022-12-01T15:30:43.318Z,2.96
2022-12-01T15:31:58.209Z,2.95
2022-12-01T15:33:01.919Z,2.95
2022-12-01T15:34:05.054Z,2.95
2022-12-01T15:35:24.513Z,2.93
2022-12-01T15:36:27.330Z,2.92
2022-12-01T15:37:42.233Z,2.93
2022-12-01T15:38:47.848Z,2.91
2022-12-01T15:39:53.699Z,2.90
2022-12-01T15:42:29.742Z,2.88
2022-12-01T15:43:38.898Z,2.89
2022-12-01T15:44:42.379Z,2.83
2022-12-01T15:45:50.596Z,2.87
2022-12-01T15:46:53.436Z,2.86
2022-12-01T15:47:56.114Z,2.84
2022-12-01T15:49:16.855Z,2.84
2022-12-01T15:50:31.161Z,2.82
2022-12-01T15:51:34.261Z,2.80
2022-12-01T15:52:44.070Z,2.80
2022-12-01T15:53:53.652Z,2.79
2022-12-01T15:55:02.316Z,2.78
2022-12-01T15:56:09.452Z,2.76
2022-12-01T15:57:18.478Z,2.74
2022-12-01T15:58:31.450Z,2.72
2022-12-01T15:59:44.637Z,2.72
2022-12-01T16:01:05.162Z,2.70
2022-12-01T16:02:25.038Z,2.69
2022-12-01T16:03:28.926Z,2.66
2022-12-01T16:04:32.472Z,2.68
2022-12-01T16:05:36.341Z,2.67
2022-12-01T16:06:40.631Z,2.57
2022-12-01T16:08:11.949Z,2.64
2022-12-01T16:09:23.202Z,2.64
2022-12-01T16:10:32.628Z,2.64
2022-12-01T16:11:37.355Z,2.63
2022-12-01T16:12:40.502Z,2.63
2022-12-01T16:13:55.853Z,2.61
2022-12-01T16:15:02.032Z,2.59
2022-12-01T16:16:42.042Z,2.58
2022-12-01T16:17:47.108Z,2.60
2022-12-01T16:19:22.718Z,2.59
2022-12-01T16:20:40.689Z,2.59
2022-12-01T16:22:05.302Z,2.57
2022-12-01T16:23:26.042Z,2.54
2022-12-01T16:24:34.485Z,2.50
2022-12-01T16:25:44.309Z,2.51
2022-12-01T16:26:52.400Z,2.49
2022-12-01T16:27:57.573Z,2.49
2022-12-01T16:29:01.588Z,2.48
2022-12-01T16:30:19.629Z,2.48
2022-12-01T16:31:22.938Z,2.43
2022-12-01T16:32:25.605Z,2.47
2022-12-01T16:33:29.877Z,2.46
2022-12-01T16:34:45.914Z,2.44
2022-12-01T16:35:53.627Z,2.42
2022-12-01T16:36:59.002Z,2.43
2022-12-01T16:38:16.394Z,2.41
2022-12-01T16:39:19.342Z,2.42
2022-12-01T16:40:22.597Z,2.40
2022-12-01T16:41:38.391Z,2.40
2022-12-01T16:42:42.178Z,2.38
2022-12-01T16:44:12.613Z,2.35
2022-12-01T16:45:15.136Z,2.35
2022-12-01T16:46:17.822Z,2.22
2022-12-01T16:47:24.974Z,2.33
2022-12-01T16:48:28.044Z,2.32
2022-12-01T16:49:31.381Z,2.34
2022-12-01T16:50:35.282Z,2.25
2022-12-01T16:51:55.281Z,2.31
2022-12-01T16:53:01.303Z,2.31
2022-12-01T16:54:07.301Z,2.30
2022-12-01T16:55:26.727Z,2.28
2022-12-01T16:56:30.040Z,2.25
2022-12-01T16:57:33.880Z,2.24
2022-12-01T16:58:37.561Z,2.23
2022-12-01T16:59:43.180Z,2.23
2022-12-01T17:00:52.840Z,2.22
2022-12-01T17:01:56.848Z,2.23
2022-12-01T17:03:00.655Z,2.24
2022-12-01T17:04:07.623Z,2.22
2022-12-01T17:05:11.739Z,2.21
2022-12-01T17:06:17.912Z,2.15
2022-12-01T17:07:21.533Z,2.18
2022-12-01T17:08:24.241Z,2.17
2022-12-01T17:09:30.616Z,2.15
2022-12-01T17:10:33.496Z,2.15
2022-12-01T17:11:36.417Z,2.16
2022-12-01T17:12:39.473Z,2.17
2022-12-01T17:13:42.561Z,2.11
2022-12-01T17:14:45.881Z,2.16
2022-12-01T17:15:50.554Z,2.15
2022-12-01T17:16:53.379Z,2.18
2022-12-01T17:17:55.939Z,2.19
2022-12-01T17:19:01.591Z,2.15
2022-12-01T17:20:07.162Z,2.13
2022-12-01T17:21:11.450Z,2.12
2022-12-01T17:22:14.267Z,2.10
2022-12-01T17:23:18.397Z,2.09
2022-12-01T17:24:21.096Z,2.05
2022-12-01T17:25:25.635Z,2.04
2022-12-01T17:26:29.197Z,2.01
2022-12-01T17:27:32.413Z,1.97
2022-12-01T17:28:37.482Z,1.96
2022-12-01T17:29:44.542Z,1.92
2022-12-01T17:30:48.959Z,1.92
2022-12-01T17:31:51.966Z,1.90
2022-12-01T17:32:54.564Z,1.88
2022-12-01T17:33:57.305Z,1.89
2022-12-01T17:34:59.912Z,1.88
2022-12-01T17:36:07.114Z,1.85
2022-12-01T17:37:10.481Z,1.86
2022-12-01T17:38:13.597Z,1.87
2022-12-01T17:39:16.655Z,1.86
2022-12-01T17:40:20.033Z,1.86
2022-12-01T17:41:24.927Z,1.84
2022-12-01T17:42:31.445Z,1.83
2022-12-01T17:43:35.886Z,1.86
2022-12-01T17:44:38.488Z,1.83
2022-12-01T17:45:43.411Z,1.86
2022-12-01T17:46:46.749Z,1.84
2022-12-01T17:47:50.062Z,1.84
2022-12-01T17:48:52.975Z,1.83
2022-12-01T17:49:56.227Z,1.84
2022-12-01T17:50:59.913Z,1.82
2022-12-01T17:52:07.153Z,1.77
2022-12-01T17:53:10.432Z,1.82
2022-12-01T17:54:13.472Z,1.79
2022-12-01T17:55:17.058Z,1.75
2022-12-01T17:56:20.113Z,1.72
2022-12-01T17:57:24.111Z,1.66
2022-12-01T17:58:27.763Z,1.66
2022-12-01T17:59:30.709Z,1.65
2022-12-01T18:00:33.667Z,1.62
2022-12-01T18:01:37.105Z,1.62
2022-12-01T18:02:40.193Z,1.60
2022-12-01T18:03:43.628Z,1.58
2022-12-01T18:04:47.109Z,1.52
2022-12-01T18:06:02.977Z,1.54
2022-12-01T18:07:07.844Z,1.51
2022-12-01T18:08:10.768Z,1.22
2022-12-01T18:09:13.920Z,1.52
2022-12-01T18:10:17.474Z,1.48
2022-12-01T18:11:20.957Z,1.52
2022-12-01T18:12:24.198Z,1.51
2022-12-01T18:13:27.420Z,1.51
2022-12-01T18:14:36.373Z,1.52
2022-12-01T18:15:50.860Z,1.49
2022-12-01T18:17:07.734Z,1.49
2022-12-01T18:18:17.684Z,1.47
2022-12-01T18:19:21.365Z,1.48
2022-12-01T18:20:24.637Z,1.47
2022-12-01T18:21:28.529Z,1.44
2022-12-01T18:22:32.061Z,1.43
2022-12-01T18:23:36.504Z,1.44
2022-12-01T18:24:39.654Z,1.45
2022-12-01T18:25:43.961Z,1.44
2022-12-01T18:26:47.044Z,1.44
2022-12-01T18:27:51.448Z,1.42
2022-12-01T18:29:02.162Z,1.48
2022-12-01T18:30:05.742Z,1.48
2022-12-01T18:31:15.904Z,1.50
2022-12-01T18:32:18.945Z,1.50
2022-12-01T18:33:21.768Z,1.50
2022-12-01T18:34:26.369Z,1.50
2022-12-01T18:35:31.931Z,1.50
2022-12-01T18:36:37.642Z,1.51
2022-12-01T18:37:40.894Z,1.45
2022-12-01T18:38:44.351Z,1.51
2022-12-01T18:39:47.728Z,1.52
2022-12-01T18:40:51.277Z,1.52
2022-12-01T18:41:54.621Z,1.53
2022-12-01T18:42:57.676Z,1.50
2022-12-01T18:44:02.361Z,1.50
2022-12-01T18:45:06.047Z,1.48
2022-12-01T18:46:12.467Z,1.50
2022-12-01T18:47:15.584Z,1.48
2022-12-01T18:48:19.177Z,1.46
2022-12-01T18:49:22.332Z,1.41
2022-12-01T18:50:25.429Z,1.39
2022-12-01T18:51:33.979Z,1.40
2022-12-01T18:52:38.387Z,1.40
2022-12-01T18:53:42.449Z,1.41
2022-12-01T18:54:46.234Z,1.40
2022-12-01T18:55:49.554Z,1.38
2022-12-01T18:56:55.425Z,1.40
2022-12-01T18:57:58.963Z,1.28
2022-12-01T18:59:07.245Z,1.35
2022-12-01T19:00:11.206Z,1.37
2022-12-01T19:01:23.799Z,1.39
2022-12-01T19:02:30.479Z,1.37
2022-12-01T19:03:33.640Z,1.37
2022-12-01T19:04:39.176Z,1.38
2022-12-01T19:05:43.126Z,1.36
2022-12-01T19:06:47.187Z,1.34
2022-12-01T19:07:53.030Z,1.30
2022-12-01T19:08:59.069Z,1.28
2022-12-01T19:10:02.558Z,1.33
2022-12-01T19:11:08.991Z,1.33
2022-12-01T19:12:12.529Z,1.31
2022-12-01T19:13:16.095Z,1.32
2022-12-01T19:14:20.144Z,1.35
2022-12-01T19:15:23.592Z,1.34
2022-12-01T19:20:38.060Z,1.33
2022-12-01T19:21:43.309Z,1.27
2022-12-01T19:22:47.056Z,1.31
2022-12-01T19:25:55.418Z,1.29
2022-12-01T19:26:59.541Z,1.30
2022-12-01T19:30:25.587Z,1.27
2022-12-01T19:31:29.338Z,1.27
2022-12-01T19:34:59.874Z,1.26
2022-12-01T19:40:31.255Z,1.05
2022-12-01T19:41:33.970Z,1.00
2022-12-01T19:44:50.989Z,0.83
2022-12-01T19:45:57.190Z,0.68
2022-12-01T19:49:21.049Z,0.71
2022-12-01T19:50:32.983Z,0.66
2022-12-01T19:54:11.931Z,0.71
2022-12-01T19:55:16.334Z,0.74
2022-12-01T19:58:35.889Z,0.66
2022-12-01T19:59:38.906Z,0.65